• Join FlightAware (Why Join?)
  • Login
  • US Flag 
09:07PM EDT


 

Airport Tracker/Info


-or-


 

Live Flight TrackerFlight Track Log ✈ EJA389 ✈ 25-Mar-2014 ✈ KSRQ - KBHM

Flight Track Log - Related Links

Times and Time Zones

All times are in EDT time to prevent confusion due to time zone crossing. See the EJA389 flight status page for this flight to view local times or setup timezone preferences in your user account.

Time Position Orientation Groundspeed Altitude Reporting Facility
EDT Latitude Longitude Course Direction KTS MPH feet Rate Location/Type
04:35PM 27.4000 -82.5667 270° West 144 166 900  Level Tampa TRACON
04:36PM 27.4000 -82.6000 270° West 223 257 2,400 2,760 Climbing Tampa TRACON
04:37PM 27.4333 -82.6333 318° Northwest 223 257 5,100 2,700 Climbing Tampa TRACON
04:39PM 27.5719 -82.6794 344° North 260 299 10,900 2,880 Climbing Jacksonville Center
04:40PM 27.6594 -82.7097 343° North 294 338 14,200 3,720 Climbing Jacksonville Center
04:41PM 27.7492 -82.7403 343° North 304 350 18,400 3,660 Climbing Jacksonville Center
04:42PM 27.8328 -82.7681 344° North 304 350 21,600 2,640 Climbing Jacksonville Center
04:43PM 27.9328 -82.7917 348° North 326 375 23,700 1,800 Climbing Jacksonville Center
04:44PM 28.0497 -82.7892 North 380 437 25,300 1,560 Climbing Jacksonville Center
04:45PM 28.1644 -82.7867 North 397 457 26,900 1,680 Climbing Jacksonville Center
04:46PM 28.2814 -82.7864 360° North 408 470 28,700 1,800 Climbing Jacksonville Center
04:47PM 28.3961 -82.7886 359° North 408 470 30,500 1,740 Climbing Jacksonville Center
04:48PM 28.5047 -82.8169 347° North 403 464 32,200 1,320 Climbing Jacksonville Center
04:49PM 28.6111 -82.8569 342° North 398 458 33,200 1,200 Climbing Jacksonville Center
04:50PM 28.6967 -82.8972 338° Northwest 380 437 34,700 1,500 Climbing Jacksonville Center
04:51PM 28.7781 -82.9542 328° Northwest 358 412 36,200 600 Climbing Jacksonville Center
04:52PM 28.8594 -83.0133 328° Northwest 353 406 36,000 -120 Descending Jacksonville Center
04:53PM 28.9325 -83.0681 327° Northwest 334 384 36,000  Level Jacksonville Center
04:54PM 29.0033 -83.1228 326° Northwest 318 366 36,000 -60 Level Jacksonville Center
04:55PM 29.0761 -83.1753 328° Northwest 313 360 35,900  Descending Jacksonville Center
04:56PM 29.1533 -83.2325 327° Northwest 313 360 36,100 720 Climbing Jacksonville Center
04:57PM 29.2261 -83.2875 327° Northwest 313 360 37,400 900 Climbing Jacksonville Center
04:58PM 29.2992 -83.3450 326° Northwest 313 360 38,000 300 Climbing Jacksonville Center
04:59PM 29.3719 -83.4025 325° Northwest 313 360 38,000  Level Jacksonville Center
05:01PM 29.5258 -83.5178 327° Northwest 318 366 38,000  Level Jacksonville Center
05:02PM 29.6111 -83.5831 326° Northwest 324 373 38,000  Level Jacksonville Center
05:03PM 29.6903 -83.6433 327° Northwest 329 379 38,000  Level Jacksonville Center
05:04PM 29.7692 -83.7036 326° Northwest 329 379 38,000  Level Jacksonville Center
05:05PM 29.8481 -83.7642 326° Northwest 334 384 38,000  Level Jacksonville Center
05:06PM 29.9228 -83.8200 327° Northwest 327 376 38,000  Level Jacksonville Center
05:07PM 29.9975 -83.8783 326° Northwest 327 376 38,000  Level Jacksonville Center
05:08PM 30.0744 -83.9392 326° Northwest 327 376 38,000  Level Jacksonville Center
05:09PM 30.1531 -83.9975 327° Northwest 327 376 38,000  Level Jacksonville Center
05:10PM 30.2319 -84.0611 325° Northwest 332 382 38,000  Level Jacksonville Center
05:11PM 30.3128 -84.1222 327° Northwest 332 382 38,000  Level Jacksonville Center
05:12PM 30.3917 -84.1808 327° Northwest 332 382 38,000  Level Jacksonville Center
05:13PM 30.4681 -84.2397 326° Northwest 332 382 38,000  Level Jacksonville Center
05:14PM 30.5469 -84.3014 326° Northwest 332 382 38,000  Level Jacksonville Center
05:15PM 30.6172 -84.3578 325° Northwest 332 382 38,000  Level Jacksonville Center
05:16PM 30.6936 -84.4217 324° Northwest 332 382 38,000  Level Jacksonville Center
05:17PM 30.7722 -84.4811 327° Northwest 332 382 38,000  Level Jacksonville Center
05:18PM 30.8508 -84.5406 327° Northwest 332 382 38,000  Level Jacksonville Center
05:19PM 30.9294 -84.6047 325° Northwest 332 382 38,000 -180 Level Jacksonville Center
05:20PM 31.0058 -84.6644 326° Northwest 332 382 37,700 -660 Descending Jacksonville Center
05:21PM 31.0883 -84.7289 326° Northwest 343 395 36,700 -1,080 Descending Jacksonville Center
05:22PM 31.1669 -84.7936 325° Northwest 348 400 35,600 -1,140 Descending Jacksonville Center
05:23PM 31.2494 -84.8561 327° Northwest 343 395 34,500 -540 Descending Jacksonville Center
05:25PM 31.4175 -84.9903 326° Northwest 328 377 34,000 -180 Descending Atlanta Center
05:26PM 31.4942 -85.0544 324° Northwest 340 391 34,000  Level Atlanta Center
05:27PM 31.5769 -85.1186 327° Northwest 345 397 34,000  Level Atlanta Center
05:28PM 31.6642 -85.1881 326° Northwest 345 397 34,000  Level Atlanta Center
05:29PM 31.7428 -85.2500 326° Northwest 345 397 34,000  Level Atlanta Center
05:30PM 31.8236 -85.3122 327° Northwest 345 397 34,000  Level Atlanta Center
05:31PM 31.9000 -85.3769 324° Northwest 345 397 34,000 -720 Level Atlanta Center
05:32PM 31.9808 -85.4419 326° Northwest 345 397 32,600 -1,500 Descending Atlanta Center
05:33PM 32.0614 -85.5092 325° Northwest 351 404 31,100 -1,800 Descending Atlanta Center
05:34PM 32.1461 -85.5744 327° Northwest 351 404 29,100 -2,400 Descending Atlanta Center
05:35PM 32.2183 -85.6394 323° Northwest 345 397 26,400 -2,520 Descending Atlanta Center
05:36PM 32.2908 -85.6950 327° Northwest 335 386 24,100 -2,160 Descending Atlanta Center
05:37PM 32.3608 -85.7503 326° Northwest 316 364 22,100 -2,040 Descending Atlanta Center
05:38PM 32.4186 -85.8056 321° Northwest 288 331 20,100 -1,800 Descending Atlanta Center
05:39PM 32.4825 -85.8536 328° Northwest 277 319 18,500 -1,500 Descending Atlanta Center
05:40PM 32.5444 -85.9017 327° Northwest 272 313 17,200 -1,440 Descending Atlanta Center
05:41PM 32.6022 -85.9497 325° Northwest 260 299 15,700 -1,500 Descending Atlanta Center
05:42PM 32.6642 -86.0006 325° Northwest 260 299 14,200 -1,380 Descending Atlanta Center
05:43PM 32.7300 -86.0536 326° Northwest 273 314 13,000 -600 Descending Atlanta Center
05:44PM 32.7958 -86.1072 326° Northwest 284 327 13,000  Level Atlanta Center
05:45PM 32.8575 -86.1606 324° Northwest 284 327 13,000  Level Atlanta Center
05:46PM 32.9214 -86.2117 326° Northwest 284 327 13,000  Level Atlanta Center
05:46PM 32.9214 -86.2189 270° West 279 321 13,000  Level Atlanta Center
05:47PM 32.9850 -86.2675 327° Northwest 279 321 13,000  Level Atlanta Center
05:47PM 32.9850 -86.2725 270° West 278 320 13,000  Level Atlanta Center
05:48PM 33.0489 -86.3214 327° Northwest 274 315 13,000 -360 Level Atlanta Center
05:49PM 33.1064 -86.3700 325° Northwest 279 321 12,300 -840 Descending Atlanta Center
05:49PM 33.1083 -86.3725 313° West 270 311 12,200 -1,440 Descending Atlanta Center
05:50PM 33.1661 -86.4161 328° Northwest 268 308 10,900 -1,620 Descending Atlanta Center
05:50PM 33.1700 -86.4236 302° West 244 281 10,600 -1,620 Descending Atlanta Center
05:51PM 33.2133 -86.4547 329° Northwest 249 287 9,300 -1,620 Descending Atlanta Center
05:51PM 33.2253 -86.4750 305° West 234 269 8,800 -1,800 Descending Atlanta Center
05:52PM 33.2686 -86.5058 329° Northwest 243 280 7,500 -1,740 Descending Atlanta Center
05:52PM 33.2744 -86.5308 286° West 255 293 7,100 -1,320 Descending Atlanta Center
05:53PM 33.2922 -86.5836 292° West 237 273 6,200 -1,320 Descending Atlanta Center
05:53PM 33.2958 -86.6011 284° West 244 281 5,900 -1,500 Descending Atlanta Center
05:54PM 33.3156 -86.6639 291° West 237 273 4,700 -1,320 Descending Atlanta Center
05:54PM 33.3194 -86.6739 295° West 231 266 4,600 -1,320 Descending Atlanta Center
05:55PM 33.3644 -86.7125 324° Northwest 232 267 3,400 -1,320 Descending Atlanta Center
05:55PM 33.3683 -86.7228 294° West 227 261 3,300 -360 Descending Atlanta Center
05:56PM 33.4267 -86.7319 353° North 214 246 3,000 -300 Descending Atlanta Center
05:57PM 33.4767 -86.7433 349° North 181 208 2,700 -660 Descending Atlanta Center
05:58PM 33.5119 -86.7494 352° North 113 130 1,700 -840 Descending Atlanta Center
05:59PM 33.5411 -86.7506 358° North 90 104 1,000 -720 Descending Atlanta Center
06:01PM 33.5500 -86.7500 309° West  Level FlightAware Approximate
06:08PM 33.5639 -86.7523 309° West  Level Estimated